createdAt,value
2022-08-03T00:00:18.697Z,20.98
2022-08-03T00:02:45.019Z,20.97
2022-08-03T00:05:11.237Z,20.96
2022-08-03T00:07:37.465Z,20.95
2022-08-03T00:10:03.641Z,20.93
2022-08-03T00:12:29.876Z,20.90
2022-08-03T00:14:56.042Z,20.88
2022-08-03T00:17:22.272Z,20.84
2022-08-03T00:19:48.462Z,20.82
2022-08-03T00:22:14.889Z,20.81
2022-08-03T00:24:41.281Z,20.78
2022-08-03T00:27:07.505Z,20.75
2022-08-03T00:29:33.710Z,20.73
2022-08-03T00:32:19.914Z,20.71
2022-08-03T00:34:57.718Z,20.70
2022-08-03T00:37:41.697Z,20.68
2022-08-03T00:40:08.146Z,20.66
2022-08-03T00:42:34.369Z,20.65
2022-08-03T00:45:00.588Z,20.64
2022-08-03T00:47:26.799Z,20.61
2022-08-03T00:49:53.035Z,20.60
2022-08-03T00:52:19.431Z,20.59
2022-08-03T00:54:45.807Z,20.55
2022-08-03T00:57:12.040Z,20.54
2022-08-03T00:59:38.243Z,20.53
2022-08-03T01:02:04.484Z,20.51
2022-08-03T01:04:30.663Z,20.49
2022-08-03T01:06:56.909Z,20.48
2022-08-03T01:09:23.140Z,20.47
2022-08-03T01:11:59.826Z,20.44
2022-08-03T01:14:26.640Z,20.43
2022-08-03T01:16:52.845Z,20.42
2022-08-03T01:19:19.175Z,20.39
2022-08-03T01:21:45.375Z,20.37
2022-08-03T01:24:13.029Z,20.36
2022-08-03T01:26:39.233Z,20.35
2022-08-03T01:29:05.453Z,20.35
2022-08-03T01:31:31.668Z,20.32
2022-08-03T01:33:57.955Z,20.31
2022-08-03T01:36:24.138Z,20.30
2022-08-03T01:38:50.365Z,20.29
2022-08-03T01:41:16.572Z,20.27
2022-08-03T01:44:28.398Z,20.27
2022-08-03T01:46:28.943Z,20.25
2022-08-03T01:48:55.231Z,20.24
2022-08-03T01:51:21.505Z,20.23
2022-08-03T01:53:47.708Z,20.24
2022-08-03T01:56:13.912Z,20.23
2022-08-03T01:58:40.111Z,20.23
2022-08-03T02:01:06.431Z,20.21
2022-08-03T02:03:32.660Z,20.21
2022-08-03T02:07:02.301Z,20.22
2022-08-03T02:08:45.017Z,20.21
2022-08-03T02:11:11.229Z,20.21
2022-08-03T02:13:37.446Z,20.23
2022-08-03T02:16:03.647Z,20.23
2022-08-03T02:18:29.892Z,20.23
2022-08-03T02:20:56.092Z,20.23
2022-08-03T02:23:22.318Z,20.24
2022-08-03T02:25:48.497Z,20.23
2022-08-03T02:28:14.694Z,20.22
2022-08-03T02:30:40.885Z,20.22
2022-08-03T02:33:07.101Z,20.22
2022-08-03T02:35:35.021Z,20.22
2022-08-03T02:38:01.184Z,20.22
2022-08-03T02:40:27.379Z,20.22
2022-08-03T02:42:53.572Z,20.21
2022-08-03T02:45:19.780Z,20.21
2022-08-03T02:47:53.565Z,20.21
2022-08-03T02:50:21.075Z,20.21
2022-08-03T02:52:47.319Z,20.21
2022-08-03T02:55:13.489Z,20.20
2022-08-03T02:57:39.686Z,20.21
2022-08-03T03:00:05.884Z,20.20
2022-08-03T03:02:32.129Z,20.19
2022-08-03T03:05:55.855Z,20.18
2022-08-03T03:07:52.993Z,20.18
2022-08-03T03:10:19.409Z,20.16
2022-08-03T03:12:45.663Z,20.14
2022-08-03T03:15:11.863Z,20.12
2022-08-03T03:17:38.078Z,20.11
2022-08-03T03:20:04.278Z,20.09
2022-08-03T03:22:30.498Z,20.07
2022-08-03T03:24:56.731Z,20.04
2022-08-03T03:27:24.481Z,20.03
2022-08-03T03:29:50.699Z,20.01
2022-08-03T03:32:17.181Z,19.99
2022-08-03T03:34:44.232Z,19.97
2022-08-03T03:37:10.582Z,19.95
2022-08-03T03:39:36.795Z,19.93
2022-08-03T03:42:03.008Z,19.92
2022-08-03T03:44:29.244Z,19.88
2022-08-03T03:46:55.462Z,19.87
2022-08-03T03:49:21.734Z,19.85
2022-08-03T03:51:48.029Z,19.86
2022-08-03T03:54:14.202Z,19.86
2022-08-03T03:56:40.420Z,19.87
2022-08-03T03:59:06.605Z,19.88
2022-08-03T04:01:32.798Z,19.91
2022-08-03T04:03:59.045Z,19.92
2022-08-03T04:06:25.271Z,19.94
2022-08-03T04:08:51.490Z,19.94
2022-08-03T04:11:17.706Z,19.97
2022-08-03T04:13:43.923Z,20.22
2022-08-03T04:16:10.124Z,20.99
2022-08-03T04:18:36.342Z,21.99
2022-08-03T04:21:02.550Z,23.00
2022-08-03T04:23:28.773Z,23.97
2022-08-03T04:25:54.982Z,24.91
2022-08-03T04:28:30.920Z,25.80
2022-08-03T04:30:57.983Z,26.70
2022-08-03T04:33:24.247Z,27.44
2022-08-03T04:36:01.801Z,27.95
2022-08-03T04:38:29.298Z,28.60
2022-08-03T04:40:55.476Z,29.21
2022-08-03T04:43:21.673Z,29.70
2022-08-03T04:45:47.905Z,29.88
2022-08-03T04:48:14.103Z,29.88
2022-08-03T04:50:40.304Z,29.80
2022-08-03T04:53:06.487Z,29.64
2022-08-03T04:55:34.532Z,29.42
2022-08-03T04:58:00.751Z,29.15
2022-08-03T05:00:26.967Z,28.97
2022-08-03T05:02:53.203Z,28.83
2022-08-03T05:05:19.549Z,28.68
2022-08-03T05:07:45.786Z,28.60
2022-08-03T05:10:15.082Z,28.47
2022-08-03T05:12:42.825Z,28.37
2022-08-03T05:15:09.009Z,28.22
2022-08-03T05:17:35.256Z,28.07
2022-08-03T05:20:01.485Z,27.96
2022-08-03T05:22:27.695Z,27.87
2022-08-03T05:24:53.968Z,27.78
2022-08-03T05:27:20.191Z,27.67
2022-08-03T05:29:46.426Z,27.55
2022-08-03T05:32:12.617Z,27.46
2022-08-03T05:34:38.828Z,27.39
2022-08-03T05:37:05.037Z,27.31
2022-08-03T05:39:31.278Z,27.25
2022-08-03T05:41:57.480Z,27.19
2022-08-03T05:44:23.722Z,27.10
2022-08-03T05:46:49.947Z,27.02
2022-08-03T05:49:16.197Z,26.96
2022-08-03T05:51:42.448Z,26.91
2022-08-03T05:54:08.637Z,26.88
2022-08-03T05:56:34.858Z,26.87
2022-08-03T05:59:16.318Z,26.87
2022-08-03T06:01:47.412Z,26.88
2022-08-03T06:04:13.746Z,26.90
2022-08-03T06:06:39.984Z,26.91
2022-08-03T06:09:06.179Z,26.92
2022-08-03T06:11:32.404Z,26.95
2022-08-03T06:13:58.601Z,27.00
2022-08-03T06:16:24.836Z,27.07
2022-08-03T06:18:51.025Z,27.10
2022-08-03T06:21:17.212Z,27.15
2022-08-03T06:23:54.320Z,27.19
2022-08-03T06:26:21.609Z,27.23
2022-08-03T06:28:52.869Z,27.29
2022-08-03T06:31:20.086Z,27.36
2022-08-03T06:33:48.346Z,27.44
2022-08-03T06:36:32.534Z,27.51
2022-08-03T06:38:58.769Z,27.57
2022-08-03T06:41:24.959Z,27.63
2022-08-03T06:44:03.444Z,27.71
2022-08-03T06:46:30.554Z,27.76
2022-08-03T06:48:56.867Z,27.82
2022-08-03T06:51:23.107Z,27.86
2022-08-03T06:54:09.303Z,27.92
2022-08-03T06:56:35.494Z,27.96
2022-08-03T06:59:01.718Z,28.00
2022-08-03T07:01:28.000Z,28.04
2022-08-03T07:03:54.221Z,28.11
2022-08-03T07:06:20.477Z,28.18
2022-08-03T07:08:49.500Z,28.26
2022-08-03T07:11:18.112Z,28.30
2022-08-03T07:13:44.294Z,28.36
2022-08-03T07:16:10.508Z,28.42
2022-08-03T07:18:36.709Z,28.43
2022-08-03T07:21:02.937Z,28.47
2022-08-03T07:23:29.129Z,28.52
2022-08-03T07:25:55.349Z,28.57
2022-08-03T07:28:21.582Z,28.63
2022-08-03T07:30:47.794Z,28.73
2022-08-03T07:33:14.073Z,28.82
2022-08-03T07:35:40.274Z,28.87
2022-08-03T07:38:06.537Z,28.92
2022-08-03T07:40:32.735Z,28.94
2022-08-03T07:42:58.964Z,28.97
2022-08-03T07:45:25.167Z,28.97
2022-08-03T07:47:53.555Z,28.95
2022-08-03T07:50:20.156Z,28.96
2022-08-03T07:52:46.353Z,28.96
2022-08-03T07:55:12.587Z,28.96
2022-08-03T07:57:38.793Z,28.94
2022-08-03T08:00:05.033Z,28.95
2022-08-03T08:02:31.248Z,28.92
2022-08-03T08:05:00.041Z,28.93
2022-08-03T08:07:29.856Z,28.94
2022-08-03T08:09:56.148Z,28.94
2022-08-03T08:12:22.382Z,28.95
2022-08-03T08:14:48.656Z,28.94
2022-08-03T08:17:14.953Z,28.94
2022-08-03T08:19:47.499Z,28.92
2022-08-03T08:22:18.308Z,28.92
2022-08-03T08:24:49.775Z,28.91
2022-08-03T08:27:17.992Z,28.90
2022-08-03T08:29:47.576Z,28.89
2022-08-03T08:32:19.656Z,28.90
2022-08-03T08:34:45.973Z,28.91
2022-08-03T08:37:12.269Z,28.92
2022-08-03T08:39:38.486Z,28.95
2022-08-03T08:42:04.724Z,28.97
2022-08-03T08:44:30.965Z,28.99
2022-08-03T08:46:57.166Z,29.02
2022-08-03T08:49:23.440Z,29.01
2022-08-03T08:51:59.047Z,29.01
2022-08-03T08:54:26.807Z,29.03
2022-08-03T08:56:53.015Z,29.04
2022-08-03T08:59:19.260Z,29.04
2022-08-03T09:01:45.512Z,29.05
2022-08-03T09:04:12.561Z,29.07
2022-08-03T09:06:38.790Z,29.09
2022-08-03T09:09:05.013Z,29.10
2022-08-03T09:11:51.554Z,29.13
2022-08-03T09:14:36.547Z,29.18
2022-08-03T09:17:03.656Z,29.23
2022-08-03T09:19:29.892Z,29.26
2022-08-03T09:21:56.133Z,29.29
2022-08-03T09:24:40.665Z,29.32
2022-08-03T09:27:07.932Z,29.35
2022-08-03T09:29:34.247Z,29.38
2022-08-03T09:32:00.538Z,29.44
2022-08-03T09:34:26.764Z,29.48
2022-08-03T09:36:53.011Z,29.51
2022-08-03T09:39:19.218Z,29.57
2022-08-03T09:41:45.449Z,29.61
2022-08-03T09:44:24.251Z,29.67
2022-08-03T09:46:52.198Z,29.70
2022-08-03T09:49:18.523Z,29.74
2022-08-03T09:52:32.115Z,29.79
2022-08-03T09:54:31.194Z,29.86
2022-08-03T09:56:57.404Z,29.92
2022-08-03T09:59:23.669Z,30.00
2022-08-03T10:01:49.913Z,30.06
2022-08-03T10:04:16.141Z,30.12
2022-08-03T10:06:42.377Z,30.15
2022-08-03T10:09:08.653Z,30.18
2022-08-03T10:11:40.572Z,30.23
2022-08-03T10:14:07.536Z,30.32
2022-08-03T10:16:33.737Z,30.39
2022-08-03T10:19:00.035Z,30.46
2022-08-03T10:21:26.304Z,30.52
2022-08-03T10:23:52.500Z,30.60
2022-08-03T10:26:18.734Z,30.67
2022-08-03T10:28:45.618Z,30.70
2022-08-03T10:31:11.925Z,30.73
2022-08-03T10:33:50.993Z,30.75
2022-08-03T10:36:18.942Z,30.81
2022-08-03T10:38:45.205Z,30.87
2022-08-03T10:41:11.414Z,30.94
2022-08-03T10:43:37.671Z,31.04
2022-08-03T10:46:03.890Z,31.09
2022-08-03T10:48:30.099Z,31.16
2022-08-03T10:50:56.350Z,31.22
2022-08-03T10:53:23.038Z,31.24
2022-08-03T10:55:49.726Z,31.23
2022-08-03T10:58:15.935Z,31.28
2022-08-03T11:00:57.005Z,31.37
2022-08-03T11:03:23.278Z,31.45
2022-08-03T11:05:49.573Z,31.49
2022-08-03T11:08:15.794Z,31.55
2022-08-03T11:10:42.041Z,31.60
2022-08-03T11:13:08.268Z,31.70
2022-08-03T11:15:34.487Z,31.80
2022-08-03T11:18:00.737Z,31.86
2022-08-03T11:20:27.842Z,31.93
2022-08-03T11:22:54.183Z,31.97
2022-08-03T11:25:55.030Z,31.99
2022-08-03T11:28:06.862Z,32.02
2022-08-03T11:30:33.142Z,32.09
2022-08-03T11:32:59.388Z,32.17
2022-08-03T11:35:25.591Z,32.23
2022-08-03T11:38:03.324Z,32.29
2022-08-03T11:40:31.598Z,32.38
2022-08-03T11:42:57.861Z,32.50
2022-08-03T11:45:24.098Z,32.57
2022-08-03T11:47:51.474Z,32.63
2022-08-03T11:50:17.855Z,32.65
2022-08-03T11:52:44.075Z,32.70
2022-08-03T11:55:10.337Z,32.78
2022-08-03T11:59:01.235Z,32.86
2022-08-03T12:00:22.785Z,32.99
2022-08-03T12:02:49.033Z,33.09
2022-08-03T12:05:15.324Z,33.18
2022-08-03T12:08:04.458Z,33.26
2022-08-03T12:10:27.970Z,33.39
2022-08-03T12:12:55.148Z,33.48
2022-08-03T12:15:21.371Z,33.57
2022-08-03T12:17:47.665Z,33.65
2022-08-03T12:20:13.980Z,33.65
2022-08-03T12:22:40.201Z,33.68
2022-08-03T12:25:06.432Z,33.72
2022-08-03T12:27:32.666Z,33.77
2022-08-03T12:29:59.354Z,33.83
2022-08-03T12:32:25.662Z,33.89
2022-08-03T12:34:51.883Z,33.93
2022-08-03T12:37:22.318Z,33.97
2022-08-03T12:40:02.433Z,33.99
2022-08-03T12:42:31.889Z,34.04
2022-08-03T12:44:58.091Z,34.13
2022-08-03T12:47:24.347Z,34.20
2022-08-03T12:49:50.558Z,34.23
2022-08-03T12:52:16.807Z,34.30
2022-08-03T12:54:43.008Z,34.41
2022-08-03T12:57:09.268Z,34.46
2022-08-03T12:59:40.706Z,34.55
2022-08-03T13:02:09.512Z,34.65
2022-08-03T13:04:36.059Z,34.75
2022-08-03T13:07:03.272Z,34.83
2022-08-03T13:09:29.677Z,34.82
2022-08-03T13:12:01.946Z,34.85
2022-08-03T13:14:28.552Z,34.90
2022-08-03T13:16:54.830Z,34.87
2022-08-03T13:19:21.009Z,34.86
2022-08-03T13:22:01.732Z,34.87
2022-08-03T13:24:31.735Z,34.89
2022-08-03T13:26:58.180Z,34.93
2022-08-03T13:29:24.377Z,35.00
2022-08-03T13:31:51.073Z,35.08
2022-08-03T13:34:22.272Z,35.12
2022-08-03T13:39:57.422Z,35.23
2022-08-03T13:42:22.078Z,35.32
2022-08-03T13:44:48.286Z,35.42
2022-08-03T13:47:14.545Z,35.38
2022-08-03T13:49:40.782Z,35.30
2022-08-03T13:52:07.025Z,35.28
2022-08-03T13:54:33.338Z,35.29
2022-08-03T13:58:01.251Z,35.37
2022-08-03T13:59:45.841Z,35.50
2022-08-03T14:02:12.090Z,35.60
2022-08-03T14:04:38.363Z,35.69
2022-08-03T14:07:04.621Z,35.76
2022-08-03T14:09:30.856Z,35.79
2022-08-03T14:12:08.175Z,35.89
2022-08-03T14:14:35.141Z,35.99
2022-08-03T14:17:01.367Z,36.10
2022-08-03T14:19:28.712Z,36.06
2022-08-03T14:22:06.068Z,36.01
2022-08-03T14:24:33.115Z,36.01
2022-08-03T14:27:07.174Z,36.07
2022-08-03T14:29:35.373Z,36.17
2022-08-03T14:32:11.529Z,36.22
2022-08-03T14:34:38.539Z,36.26
2022-08-03T14:37:04.821Z,36.21
2022-08-03T14:39:58.331Z,36.20
2022-08-03T14:42:17.252Z,36.22
2022-08-03T14:44:43.467Z,36.21
2022-08-03T14:47:09.714Z,36.19
2022-08-03T14:50:30.177Z,36.07
2022-08-03T14:52:22.167Z,36.06
2022-08-03T14:54:48.378Z,36.18
2022-08-03T14:57:14.614Z,36.28
2022-08-03T14:59:55.888Z,36.40
2022-08-03T15:02:24.194Z,36.46
2022-08-03T15:04:50.719Z,36.52
2022-08-03T15:07:17.071Z,36.61
2022-08-03T15:09:43.396Z,36.66
2022-08-03T15:12:09.613Z,36.74
2022-08-03T15:14:35.857Z,36.82
2022-08-03T15:17:04.135Z,36.89
2022-08-03T15:20:00.986Z,36.94
2022-08-03T15:22:16.592Z,36.93
2022-08-03T15:24:46.807Z,36.88
2022-08-03T15:27:13.078Z,36.81
2022-08-03T15:30:09.659Z,36.81
2022-08-03T15:32:25.537Z,36.83
2022-08-03T15:34:52.641Z,36.80
2022-08-03T15:37:18.851Z,36.74
2022-08-03T15:40:00.090Z,36.72
2022-08-03T15:42:26.916Z,36.69
2022-08-03T15:44:53.753Z,36.72
2022-08-03T15:47:21.238Z,36.74
2022-08-03T15:49:47.779Z,36.75
2022-08-03T15:52:14.085Z,36.75
2022-08-03T15:54:40.334Z,36.69
2022-08-03T15:57:06.652Z,36.70
2022-08-03T15:59:32.832Z,36.69
2022-08-03T16:01:59.091Z,36.72
2022-08-03T16:04:25.340Z,36.76
2022-08-03T16:06:51.570Z,36.78
2022-08-03T16:09:23.629Z,36.74
2022-08-03T16:12:03.981Z,36.67
2022-08-03T16:14:33.357Z,36.61
2022-08-03T16:17:01.974Z,36.60
2022-08-03T16:19:28.217Z,36.62
2022-08-03T16:21:54.422Z,36.62
2022-08-03T16:24:28.098Z,36.62
2022-08-03T16:26:54.508Z,36.58
2022-08-03T16:29:22.679Z,36.54
2022-08-03T16:31:51.132Z,36.50
2022-08-03T16:34:17.852Z,36.47
2022-08-03T16:36:45.244Z,36.44
2022-08-03T16:39:11.538Z,36.44
2022-08-03T16:41:54.348Z,36.42
2022-08-03T16:44:24.133Z,36.37
2022-08-03T16:46:53.343Z,36.32
2022-08-03T16:49:54.593Z,36.22
2022-08-03T16:52:07.137Z,36.12
2022-08-03T16:54:33.505Z,36.00
2022-08-03T16:57:01.090Z,35.86
2022-08-03T16:59:36.004Z,35.76
2022-08-03T17:02:07.973Z,35.68
2022-08-03T17:04:36.304Z,35.56
2022-08-03T17:07:06.672Z,35.47
2022-08-03T17:09:38.286Z,35.39
2022-08-03T17:12:05.123Z,35.31
2022-08-03T17:14:33.484Z,35.21
2022-08-03T17:16:59.721Z,35.10
2022-08-03T17:19:27.800Z,35.00
2022-08-03T17:21:55.433Z,34.87
2022-08-03T17:24:21.666Z,34.77
2022-08-03T17:26:51.512Z,34.70
2022-08-03T17:29:17.748Z,34.62
2022-08-03T17:31:49.646Z,34.52
2022-08-03T17:34:16.217Z,34.42
2022-08-03T17:37:03.407Z,34.33
2022-08-03T17:39:55.803Z,34.23
2022-08-03T17:42:26.925Z,34.13
2022-08-03T17:44:57.674Z,34.02
2022-08-03T17:47:23.900Z,33.97
2022-08-03T17:49:55.660Z,33.90
2022-08-03T17:52:22.016Z,33.82
2022-08-03T17:55:50.597Z,33.76
2022-08-03T17:58:01.441Z,33.66
2022-08-03T18:00:21.011Z,33.54
2022-08-03T18:02:49.289Z,33.41
2022-08-03T18:05:17.804Z,33.29
2022-08-03T18:07:48.023Z,33.11
2022-08-03T18:10:15.446Z,32.97
2022-08-03T18:12:42.210Z,32.82
2022-08-03T18:15:13.237Z,32.66
2022-08-03T18:17:58.076Z,32.49
2022-08-03T18:20:32.112Z,32.33
2022-08-03T18:23:05.364Z,32.17
2022-08-03T18:25:45.716Z,32.05
2022-08-03T18:28:16.427Z,31.87
2022-08-03T18:30:54.010Z,31.75
2022-08-03T18:34:17.194Z,31.61
2022-08-03T18:36:07.436Z,31.46
2022-08-03T18:38:35.416Z,31.30
2022-08-03T18:41:01.769Z,31.15
2022-08-03T18:43:46.712Z,31.02
2022-08-03T18:46:14.244Z,30.86
2022-08-03T18:48:40.473Z,30.73
2022-08-03T18:51:12.344Z,30.57
2022-08-03T18:54:02.789Z,30.40
2022-08-03T18:56:32.339Z,30.25
2022-08-03T18:59:02.243Z,30.13
2022-08-03T19:01:58.350Z,30.02
2022-08-03T19:04:15.223Z,29.87
2022-08-03T19:06:43.166Z,29.76
2022-08-03T19:09:10.358Z,29.62
2022-08-03T19:12:14.185Z,29.51
2022-08-03T19:14:22.802Z,29.39
2022-08-03T19:16:55.074Z,29.28
2022-08-03T19:19:21.286Z,29.19
2022-08-03T19:21:49.269Z,29.09
2022-08-03T19:24:15.703Z,29.01
2022-08-03T19:26:41.978Z,28.90
2022-08-03T19:29:11.349Z,28.77
2022-08-03T19:31:41.710Z,28.67
2022-08-03T19:34:25.455Z,28.56
2022-08-03T19:36:51.689Z,28.48
2022-08-03T19:39:17.954Z,28.39
2022-08-03T19:41:44.935Z,28.29
2022-08-03T19:44:19.859Z,28.22
2022-08-03T19:46:46.628Z,28.13
2022-08-03T19:49:15.088Z,28.05
2022-08-03T19:52:02.453Z,27.94
2022-08-03T19:54:29.849Z,27.85
2022-08-03T19:56:58.473Z,27.78
2022-08-03T19:59:24.724Z,27.71
2022-08-03T20:01:52.730Z,27.63
2022-08-03T20:04:18.947Z,27.56
2022-08-03T20:06:46.779Z,27.49
2022-08-03T20:09:15.922Z,27.43
2022-08-03T20:11:43.665Z,27.37
2022-08-03T20:14:11.272Z,27.30
2022-08-03T20:16:39.520Z,27.22
2022-08-03T20:19:05.708Z,27.14
2022-08-03T20:21:40.665Z,27.08
2022-08-03T20:24:24.376Z,27.01
2022-08-03T20:26:51.806Z,26.94
2022-08-03T20:29:19.618Z,26.89
2022-08-03T20:32:05.799Z,26.81
2022-08-03T20:34:32.682Z,26.77
2022-08-03T20:36:58.914Z,26.70
2022-08-03T20:39:26.190Z,26.64
2022-08-03T20:41:53.704Z,26.58
2022-08-03T20:44:25.780Z,26.52
2022-08-03T20:47:00.299Z,26.46
2022-08-03T20:49:27.027Z,26.41
2022-08-03T20:51:53.739Z,26.34
2022-08-03T20:54:22.968Z,26.29
2022-08-03T20:56:56.311Z,26.24
2022-08-03T20:59:22.577Z,26.18
2022-08-03T21:01:50.369Z,26.11
2022-08-03T21:04:20.900Z,26.05
2022-08-03T21:06:53.165Z,26.00
2022-08-03T21:09:19.858Z,25.94
2022-08-03T21:11:46.454Z,25.89
2022-08-03T21:14:12.675Z,25.84
2022-08-03T21:16:38.949Z,25.79
2022-08-03T21:19:05.115Z,25.75
2022-08-03T21:21:31.354Z,25.69
2022-08-03T21:23:57.564Z,25.64
2022-08-03T21:26:23.752Z,25.59
2022-08-03T21:28:49.987Z,25.54
2022-08-03T21:31:24.198Z,25.50
2022-08-03T21:33:52.023Z,25.45
2022-08-03T21:36:18.198Z,25.40
2022-08-03T21:38:44.402Z,25.34
2022-08-03T21:41:21.954Z,25.29
2022-08-03T21:43:48.144Z,25.24
2022-08-03T21:46:14.351Z,25.19
2022-08-03T21:48:40.555Z,25.14
2022-08-03T21:51:06.783Z,25.09
2022-08-03T21:54:02.791Z,25.05
2022-08-03T21:56:19.182Z,25.00
2022-08-03T21:58:45.373Z,24.95
2022-08-03T22:01:17.330Z,24.90
2022-08-03T22:03:53.909Z,24.86
2022-08-03T22:06:20.508Z,24.82
2022-08-03T22:08:48.782Z,24.76
2022-08-03T22:11:15.015Z,24.71
2022-08-03T22:13:43.282Z,24.67
2022-08-03T22:16:10.796Z,24.62
2022-08-03T22:18:37.044Z,24.57
2022-08-03T22:21:03.255Z,24.54
2022-08-03T22:23:29.856Z,24.48
2022-08-03T22:25:56.077Z,24.42
2022-08-03T22:28:22.289Z,24.38
2022-08-03T22:30:48.460Z,24.32
2022-08-03T22:33:14.687Z,24.28
2022-08-03T22:35:44.246Z,24.24
2022-08-03T22:38:14.391Z,24.17
2022-08-03T22:40:40.618Z,24.14
2022-08-03T22:43:06.803Z,24.10
2022-08-03T22:46:07.243Z,24.07
2022-08-03T22:48:19.259Z,24.02
2022-08-03T22:50:45.488Z,24.00
2022-08-03T22:53:11.701Z,23.96
2022-08-03T22:55:37.936Z,23.93
2022-08-03T22:58:04.120Z,23.90
2022-08-03T23:00:30.495Z,23.86
2022-08-03T23:02:56.769Z,23.82
2022-08-03T23:06:01.530Z,23.79
2022-08-03T23:08:09.202Z,23.75
2022-08-03T23:10:35.412Z,23.72
2022-08-03T23:13:01.605Z,23.69
2022-08-03T23:15:27.810Z,23.67
2022-08-03T23:17:57.950Z,23.64
2022-08-03T23:20:26.517Z,23.62
2022-08-03T23:22:52.955Z,23.59
2022-08-03T23:25:19.117Z,23.57
2022-08-03T23:27:45.353Z,23.53
2022-08-03T23:30:11.563Z,23.49
2022-08-03T23:32:37.773Z,23.46
2022-08-03T23:35:03.997Z,23.43
2022-08-03T23:37:30.221Z,23.40
2022-08-03T23:39:56.421Z,23.37
2022-08-03T23:42:22.625Z,23.33
2022-08-03T23:44:48.925Z,23.32
2022-08-03T23:47:15.145Z,23.31
2022-08-03T23:49:41.318Z,23.29
2022-08-03T23:52:07.540Z,23.26
2022-08-03T23:54:33.752Z,23.24
2022-08-03T23:56:59.968Z,23.22
2022-08-03T23:59:26.159Z,23.21
